Ashton, Nebraska
Current Conditions -  °F | °C
As of 1:53 PM on Thursday 30 Oct 2014 (Local Time) from KODX Reporting Station
Clear Clear  
Wind Chill: 60°   Ceiling: Unl
Heat Index: 60°   Visibility: 10mi
Dew Point: 34°   Wind: 21mph
Humidity: 38%   Direction: 330°NNW
Pressure: 30.19"   Gusts: 28mph
Location:  41.25°N, 98.79°W
Report Text: KODX 301853Z AUTO 33018G24KT 10SM CLR 16/01 A3019 RMK AO2 PK WND 33029/1827 SLP230 T01560011
Loading
Personal Weather Stations






























Interactive Weather Map New forecast layout! Learn more

10-Day Weather Forecast

Advertisements
Track Severe Weather on mobile